sensor_id;sensor_type;location;lat;lon;timestamp;pressure;altitude;pressure_sealevel;temperature;humidity
23318;BME280;11831;55.918;37.746;2022-07-31T00:00:15;99645.56;;;20.29;0.00
23318;BME280;11831;55.918;37.746;2022-07-31T00:02:41;99654.28;;;20.26;0.00
23318;BME280;11831;55.918;37.746;2022-07-31T00:05:07;99650.03;;;20.14;0.00
23318;BME280;11831;55.918;37.746;2022-07-31T00:07:33;99657.50;;;19.99;0.00
23318;BME280;11831;55.918;37.746;2022-07-31T00:09:59;99644.41;;;20.06;0.00
23318;BME280;11831;55.918;37.746;2022-07-31T00:12:25;99648.97;;;20.10;0.00
23318;BME280;11831;55.918;37.746;2022-07-31T00:14:51;99649.78;;;20.11;0.00
23318;BME280;11831;55.918;37.746;2022-07-31T00:17:17;99650.97;;;20.00;0.00
23318;BME280;11831;55.918;37.746;2022-07-31T00:19:44;99642.03;;;19.99;0.00
23318;BME280;11831;55.918;37.746;2022-07-31T00:22:10;99649.41;;;19.94;0.00
23318;BME280;11831;55.918;37.746;2022-07-31T00:24:37;99647.25;;;19.91;0.00
23318;BME280;11831;55.918;37.746;2022-07-31T00:27:03;99644.22;;;19.63;0.00
23318;BME280;11831;55.918;37.746;2022-07-31T00:29:29;99647.09;;;19.77;0.00
23318;BME280;11831;55.918;37.746;2022-07-31T00:31:56;99644.84;;;19.84;0.00
23318;BME280;11831;55.918;37.746;2022-07-31T00:34:22;99647.62;;;19.79;0.00
23318;BME280;11831;55.918;37.746;2022-07-31T00:36:48;99639.56;;;19.69;0.00
23318;BME280;11831;55.918;37.746;2022-07-31T00:39:14;99645.44;;;19.81;0.00
23318;BME280;11831;55.918;37.746;2022-07-31T00:41:41;99643.31;;;19.73;0.00
23318;BME280;11831;55.918;37.746;2022-07-31T00:44:08;99646.31;;;19.71;0.00
23318;BME280;11831;55.918;37.746;2022-07-31T00:46:35;99644.47;;;19.67;0.00
23318;BME280;11831;55.918;37.746;2022-07-31T00:49:01;99646.47;;;19.90;0.00
23318;BME280;11831;55.918;37.746;2022-07-31T00:51:27;99649.66;;;19.63;0.00
23318;BME280;11831;55.918;37.746;2022-07-31T00:53:53;99642.91;;;19.56;0.00
23318;BME280;11831;55.918;37.746;2022-07-31T00:56:19;99643.50;;;19.42;0.00
23318;BME280;11831;55.918;37.746;2022-07-31T00:58:46;99649.53;;;19.34;0.00
23318;BME280;11831;55.918;37.746;2022-07-31T01:01:13;99651.03;;;19.56;0.00
23318;BME280;11831;55.918;37.746;2022-07-31T01:03:39;99646.94;;;19.63;0.00
23318;BME280;11831;55.918;37.746;2022-07-31T01:06:05;99648.72;;;19.78;0.00
23318;BME280;11831;55.918;37.746;2022-07-31T01:08:31;99646.03;;;19.73;0.00
23318;BME280;11831;55.918;37.746;2022-07-31T01:13:38;99656.75;;;20.22;0.00
23318;BME280;11831;55.918;37.746;2022-07-31T01:16:08;99662.25;;;20.12;0.00
23318;BME280;11831;55.918;37.746;2022-07-31T01:18:36;99654.41;;;20.39;0.00
23318;BME280;11831;55.918;37.746;2022-07-31T01:21:05;99652.88;;;19.99;0.00
23318;BME280;11831;55.918;37.746;2022-07-31T01:23:47;99667.78;;;19.68;0.00
23318;BME280;11831;55.918;37.746;2022-07-31T01:31:23;99678.44;;;19.54;0.00
23318;BME280;11831;55.918;37.746;2022-07-31T01:34:25;99684.97;;;19.48;0.00
23318;BME280;11831;55.918;37.746;2022-07-31T01:36:43;99681.53;;;19.76;0.00
23318;BME280;11831;55.918;37.746;2022-07-31T01:39:11;99677.38;;;19.89;0.00
23318;BME280;11831;55.918;37.746;2022-07-31T01:41:39;99674.22;;;19.77;0.00
23318;BME280;11831;55.918;37.746;2022-07-31T01:44:06;99673.53;;;19.95;0.00
23318;BME280;11831;55.918;37.746;2022-07-31T01:46:33;99673.03;;;19.93;0.00
23318;BME280;11831;55.918;37.746;2022-07-31T01:49:00;99680.84;;;19.61;0.00
23318;BME280;11831;55.918;37.746;2022-07-31T01:51:27;99689.16;;;19.74;0.00
23318;BME280;11831;55.918;37.746;2022-07-31T01:53:55;99687.50;;;19.78;0.00
23318;BME280;11831;55.918;37.746;2022-07-31T01:56:22;99675.91;;;19.68;0.00
23318;BME280;11831;55.918;37.746;2022-07-31T01:58:49;99676.94;;;19.77;0.00
23318;BME280;11831;55.918;37.746;2022-07-31T02:01:15;99683.25;;;19.67;0.00
23318;BME280;11831;55.918;37.746;2022-07-31T02:03:43;99675.72;;;19.49;0.00
23318;BME280;11831;55.918;37.746;2022-07-31T02:06:10;99666.13;;;19.72;0.00
23318;BME280;11831;55.918;37.746;2022-07-31T02:08:37;99668.91;;;19.62;0.00
23318;BME280;11831;55.918;37.746;2022-07-31T02:11:04;99674.81;;;19.69;0.00
23318;BME280;11831;55.918;37.746;2022-07-31T02:13:30;99669.72;;;19.57;0.00
23318;BME280;11831;55.918;37.746;2022-07-31T02:15:57;99667.59;;;19.54;0.00
23318;BME280;11831;55.918;37.746;2022-07-31T02:18:24;99669.50;;;19.53;0.00
23318;BME280;11831;55.918;37.746;2022-07-31T02:20:51;99672.19;;;19.48;0.00
23318;BME280;11831;55.918;37.746;2022-07-31T02:23:18;99670.53;;;19.58;0.00
23318;BME280;11831;55.918;37.746;2022-07-31T02:25:44;99666.88;;;19.77;0.00
23318;BME280;11831;55.918;37.746;2022-07-31T02:28:12;99661.69;;;19.81;0.00
23318;BME280;11831;55.918;37.746;2022-07-31T02:30:41;99667.31;;;19.95;0.00
23318;BME280;11831;55.918;37.746;2022-07-31T02:33:09;99665.22;;;20.15;0.00
23318;BME280;11831;55.918;37.746;2022-07-31T02:35:36;99663.16;;;19.68;0.00
23318;BME280;11831;55.918;37.746;2022-07-31T02:38:03;99667.06;;;19.91;0.00
23318;BME280;11831;55.918;37.746;2022-07-31T02:40:29;99663.50;;;19.62;0.00
23318;BME280;11831;55.918;37.746;2022-07-31T02:42:55;99672.50;;;19.86;0.00
23318;BME280;11831;55.918;37.746;2022-07-31T02:45:21;99664.16;;;19.77;0.00
23318;BME280;11831;55.918;37.746;2022-07-31T02:47:47;99660.88;;;19.80;0.00
23318;BME280;11831;55.918;37.746;2022-07-31T02:50:14;99658.22;;;20.09;0.00
23318;BME280;11831;55.918;37.746;2022-07-31T02:52:42;99656.06;;;20.06;0.00
23318;BME280;11831;55.918;37.746;2022-07-31T02:55:08;99652.66;;;20.25;0.00
23318;BME280;11831;55.918;37.746;2022-07-31T02:57:35;99650.50;;;20.51;0.00
23318;BME280;11831;55.918;37.746;2022-07-31T03:00:12;99652.94;;;19.89;0.00
23318;BME280;11831;55.918;37.746;2022-07-31T03:02:39;99653.13;;;20.03;0.00
23318;BME280;11831;55.918;37.746;2022-07-31T03:05:07;99657.06;;;20.15;0.00
23318;BME280;11831;55.918;37.746;2022-07-31T03:07:33;99653.47;;;19.96;0.00
23318;BME280;11831;55.918;37.746;2022-07-31T03:09:59;99662.88;;;20.04;0.00
23318;BME280;11831;55.918;37.746;2022-07-31T03:12:30;99659.88;;;20.05;0.00
23318;BME280;11831;55.918;37.746;2022-07-31T03:14:57;99664.97;;;20.12;0.00
23318;BME280;11831;55.918;37.746;2022-07-31T03:17:24;99669.53;;;20.22;0.00
23318;BME280;11831;55.918;37.746;2022-07-31T03:19:51;99662.50;;;20.15;0.00
23318;BME280;11831;55.918;37.746;2022-07-31T03:22:17;99667.56;;;20.27;0.00
23318;BME280;11831;55.918;37.746;2022-07-31T03:24:43;99668.81;;;20.40;0.00
23318;BME280;11831;55.918;37.746;2022-07-31T03:27:09;99671.66;;;20.25;0.00
23318;BME280;11831;55.918;37.746;2022-07-31T03:29:36;99662.75;;;20.48;0.00
23318;BME280;11831;55.918;37.746;2022-07-31T03:32:02;99666.91;;;20.40;0.00
23318;BME280;11831;55.918;37.746;2022-07-31T03:34:28;99667.72;;;20.41;0.00
23318;BME280;11831;55.918;37.746;2022-07-31T03:36:54;99665.22;;;20.44;0.00
23318;BME280;11831;55.918;37.746;2022-07-31T03:39:20;99666.03;;;21.17;0.00
23318;BME280;11831;55.918;37.746;2022-07-31T03:41:46;99665.13;;;21.02;0.00
23318;BME280;11831;55.918;37.746;2022-07-31T03:44:12;99656.56;;;21.14;0.00
23318;BME280;11831;55.918;37.746;2022-07-31T03:46:39;99660.81;;;21.44;0.00
23318;BME280;11831;55.918;37.746;2022-07-31T03:49:05;99664.25;;;21.50;0.00
23318;BME280;11831;55.918;37.746;2022-07-31T03:51:32;99664.97;;;21.36;0.00
23318;BME280;11831;55.918;37.746;2022-07-31T03:53:58;99667.97;;;21.73;0.00
23318;BME280;11831;55.918;37.746;2022-07-31T03:56:24;99672.47;;;21.82;0.00
23318;BME280;11831;55.918;37.746;2022-07-31T03:58:51;99674.47;;;21.77;0.00
23318;BME280;11831;55.918;37.746;2022-07-31T04:01:17;99672.28;;;22.11;0.00
23318;BME280;11831;55.918;37.746;2022-07-31T04:03:43;99674.63;;;22.18;0.00
23318;BME280;11831;55.918;37.746;2022-07-31T04:06:09;99672.22;;;22.30;0.00
23318;BME280;11831;55.918;37.746;2022-07-31T04:08:35;99671.44;;;22.57;0.00
23318;BME280;11831;55.918;37.746;2022-07-31T04:11:01;99674.19;;;22.43;0.00
23318;BME280;11831;55.918;37.746;2022-07-31T04:13:27;99674.38;;;22.47;0.00
23318;BME280;11831;55.918;37.746;2022-07-31T04:15:53;99660.44;;;22.62;0.00
23318;BME280;11831;55.918;37.746;2022-07-31T04:18:19;99664.56;;;22.32;0.00
23318;BME280;11831;55.918;37.746;2022-07-31T04:20:45;99666.59;;;22.40;0.00
23318;BME280;11831;55.918;37.746;2022-07-31T04:23:12;99665.59;;;22.63;0.00
23318;BME280;11831;55.918;37.746;2022-07-31T04:25:39;99661.75;;;22.65;0.00
23318;BME280;11831;55.918;37.746;2022-07-31T04:28:06;99657.56;;;23.00;0.00
23318;BME280;11831;55.918;37.746;2022-07-31T04:30:32;99663.91;;;23.09;0.00
23318;BME280;11831;55.918;37.746;2022-07-31T04:32:58;99663.56;;;23.38;0.00
23318;BME280;11831;55.918;37.746;2022-07-31T04:35:24;99660.75;;;23.15;0.00
23318;BME280;11831;55.918;37.746;2022-07-31T04:37:50;99659.28;;;23.59;0.00
23318;BME280;11831;55.918;37.746;2022-07-31T04:40:17;99661.34;;;23.26;0.00
23318;BME280;11831;55.918;37.746;2022-07-31T04:42:43;99667.34;;;23.50;0.00
23318;BME280;11831;55.918;37.746;2022-07-31T04:45:09;99665.06;;;23.44;0.00
23318;BME280;11831;55.918;37.746;2022-07-31T04:47:35;99664.13;;;23.48;0.00
23318;BME280;11831;55.918;37.746;2022-07-31T04:50:02;99655.50;;;23.55;0.00
23318;BME280;11831;55.918;37.746;2022-07-31T04:52:29;99651.66;;;23.34;0.00
23318;BME280;11831;55.918;37.746;2022-07-31T04:54:55;99649.19;;;23.46;0.00
23318;BME280;11831;55.918;37.746;2022-07-31T04:57:21;99654.12;;;23.80;0.00
23318;BME280;11831;55.918;37.746;2022-07-31T04:59:47;99654.81;;;23.49;0.00
23318;BME280;11831;55.918;37.746;2022-07-31T05:02:13;99657.81;;;23.98;0.00
23318;BME280;11831;55.918;37.746;2022-07-31T05:04:39;99655.88;;;24.21;0.00
23318;BME280;11831;55.918;37.746;2022-07-31T05:07:05;99652.31;;;24.20;0.00
23318;BME280;11831;55.918;37.746;2022-07-31T05:09:31;99649.38;;;24.39;0.00
23318;BME280;11831;55.918;37.746;2022-07-31T05:12:00;99662.25;;;24.16;0.00
23318;BME280;11831;55.918;37.746;2022-07-31T05:14:26;99655.34;;;24.41;0.00
23318;BME280;11831;55.918;37.746;2022-07-31T05:16:52;99652.44;;;24.77;0.00
23318;BME280;11831;55.918;37.746;2022-07-31T05:19:18;99658.34;;;24.62;0.00
23318;BME280;11831;55.918;37.746;2022-07-31T05:21:45;99654.12;;;24.56;0.00
23318;BME280;11831;55.918;37.746;2022-07-31T05:24:11;99657.44;;;24.44;0.00
23318;BME280;11831;55.918;37.746;2022-07-31T05:26:37;99654.72;;;24.44;0.00
23318;BME280;11831;55.918;37.746;2022-07-31T05:29:03;99654.03;;;24.38;0.00
23318;BME280;11831;55.918;37.746;2022-07-31T05:31:29;99653.38;;;24.72;0.00
23318;BME280;11831;55.918;37.746;2022-07-31T05:33:56;99648.44;;;24.83;0.00
23318;BME280;11831;55.918;37.746;2022-07-31T05:36:24;99652.09;;;25.18;0.00
23318;BME280;11831;55.918;37.746;2022-07-31T05:38:51;99645.53;;;25.45;0.00
23318;BME280;11831;55.918;37.746;2022-07-31T05:41:18;99647.59;;;25.22;0.00
23318;BME280;11831;55.918;37.746;2022-07-31T05:43:46;99638.97;;;24.89;0.00
23318;BME280;11831;55.918;37.746;2022-07-31T05:46:12;99642.50;;;24.90;0.00
23318;BME280;11831;55.918;37.746;2022-07-31T05:48:39;99632.63;;;25.28;0.00
23318;BME280;11831;55.918;37.746;2022-07-31T05:51:09;99638.06;;;25.02;0.00
23318;BME280;11831;55.918;37.746;2022-07-31T05:53:35;99627.47;;;24.70;0.00
23318;BME280;11831;55.918;37.746;2022-07-31T05:56:04;99622.25;;;24.91;0.00
23318;BME280;11831;55.918;37.746;2022-07-31T05:58:31;99627.16;;;24.71;0.00
23318;BME280;11831;55.918;37.746;2022-07-31T06:00:57;99626.53;;;24.74;0.00
23318;BME280;11831;55.918;37.746;2022-07-31T06:03:24;99625.63;;;24.96;0.00
23318;BME280;11831;55.918;37.746;2022-07-31T06:05:52;99625.28;;;24.81;0.00
23318;BME280;11831;55.918;37.746;2022-07-31T06:08:18;99631.81;;;24.62;0.00
23318;BME280;11831;55.918;37.746;2022-07-31T06:10:45;99630.22;;;24.78;0.00
23318;BME280;11831;55.918;37.746;2022-07-31T06:13:11;99637.22;;;23.92;0.00
23318;BME280;11831;55.918;37.746;2022-07-31T06:15:38;99640.09;;;24.49;0.00
23318;BME280;11831;55.918;37.746;2022-07-31T06:18:04;99625.38;;;24.58;0.00
23318;BME280;11831;55.918;37.746;2022-07-31T06:20:30;99626.19;;;24.67;0.00
23318;BME280;11831;55.918;37.746;2022-07-31T06:22:56;99631.47;;;25.03;0.00
23318;BME280;11831;55.918;37.746;2022-07-31T06:25:23;99636.22;;;24.89;0.00
23318;BME280;11831;55.918;37.746;2022-07-31T06:27:49;99638.25;;;25.32;0.00
23318;BME280;11831;55.918;37.746;2022-07-31T06:30:15;99635.72;;;25.44;0.00
23318;BME280;11831;55.918;37.746;2022-07-31T06:32:41;99639.22;;;25.36;0.00
23318;BME280;11831;55.918;37.746;2022-07-31T06:35:08;99637.00;;;25.47;0.00
23318;BME280;11831;55.918;37.746;2022-07-31T06:37:35;99637.13;;;25.33;0.00
23318;BME280;11831;55.918;37.746;2022-07-31T06:40:01;99636.50;;;25.45;0.00
23318;BME280;11831;55.918;37.746;2022-07-31T06:42:28;99634.22;;;25.29;0.00
23318;BME280;11831;55.918;37.746;2022-07-31T06:45:03;99636.19;;;25.81;0.00
23318;BME280;11831;55.918;37.746;2022-07-31T06:47:31;99629.38;;;26.13;0.00
23318;BME280;11831;55.918;37.746;2022-07-31T06:49:58;99629.94;;;25.72;0.00
23318;BME280;11831;55.918;37.746;2022-07-31T06:52:24;99632.16;;;25.44;0.00
23318;BME280;11831;55.918;37.746;2022-07-31T06:54:50;99631.50;;;25.12;0.00
23318;BME280;11831;55.918;37.746;2022-07-31T06:57:16;99626.38;;;25.45;0.00
23318;BME280;11831;55.918;37.746;2022-07-31T06:59:42;99627.00;;;25.59;0.00
23318;BME280;11831;55.918;37.746;2022-07-31T07:02:08;99618.78;;;26.49;0.00
23318;BME280;11831;55.918;37.746;2022-07-31T07:04:34;99615.22;;;25.07;0.00
23318;BME280;11831;55.918;37.746;2022-07-31T07:07:01;99617.34;;;25.19;0.00
23318;BME280;11831;55.918;37.746;2022-07-31T07:09:27;99618.63;;;25.64;0.00
23318;BME280;11831;55.918;37.746;2022-07-31T07:11:53;99621.97;;;25.10;0.00
23318;BME280;11831;55.918;37.746;2022-07-31T07:14:19;99620.84;;;25.97;0.00
23318;BME280;11831;55.918;37.746;2022-07-31T07:16:45;99623.97;;;25.78;0.00
23318;BME280;11831;55.918;37.746;2022-07-31T07:19:11;99617.47;;;25.91;0.00
23318;BME280;11831;55.918;37.746;2022-07-31T07:21:37;99616.53;;;25.87;0.00
23318;BME280;11831;55.918;37.746;2022-07-31T07:24:03;99607.22;;;26.73;0.00
23318;BME280;11831;55.918;37.746;2022-07-31T07:26:30;99610.66;;;27.00;0.00
23318;BME280;11831;55.918;37.746;2022-07-31T07:28:56;99607.09;;;26.61;0.00
23318;BME280;11831;55.918;37.746;2022-07-31T07:31:22;99615.97;;;26.20;0.00
23318;BME280;11831;55.918;37.746;2022-07-31T07:33:48;99612.81;;;25.66;0.00
23318;BME280;11831;55.918;37.746;2022-07-31T07:36:17;99610.38;;;25.99;0.00
23318;BME280;11831;55.918;37.746;2022-07-31T07:38:43;99606.97;;;26.87;0.00
23318;BME280;11831;55.918;37.746;2022-07-31T07:41:09;99599.88;;;27.15;0.00
23318;BME280;11831;55.918;37.746;2022-07-31T07:43:35;99599.53;;;27.17;0.00
23318;BME280;11831;55.918;37.746;2022-07-31T07:46:01;99603.94;;;26.80;0.00
23318;BME280;11831;55.918;37.746;2022-07-31T07:48:27;99605.69;;;27.14;0.00
23318;BME280;11831;55.918;37.746;2022-07-31T07:50:54;99604.50;;;27.03;0.00
23318;BME280;11831;55.918;37.746;2022-07-31T07:53:21;99607.97;;;26.82;0.00
23318;BME280;11831;55.918;37.746;2022-07-31T07:55:46;99603.06;;;26.97;0.00
23318;BME280;11831;55.918;37.746;2022-07-31T07:58:15;99599.00;;;27.03;0.00
23318;BME280;11831;55.918;37.746;2022-07-31T08:00:41;99603.94;;;26.80;0.00
23318;BME280;11831;55.918;37.746;2022-07-31T08:03:08;99602.16;;;27.34;0.00
23318;BME280;11831;55.918;37.746;2022-07-31T08:05:34;99595.53;;;27.14;0.00
23318;BME280;11831;55.918;37.746;2022-07-31T08:08:00;99602.53;;;27.24;0.00
23318;BME280;11831;55.918;37.746;2022-07-31T08:10:27;99597.25;;;27.19;0.00
23318;BME280;11831;55.918;37.746;2022-07-31T08:12:53;99598.34;;;26.76;0.00
23318;BME280;11831;55.918;37.746;2022-07-31T08:15:24;99591.56;;;26.44;0.00
23318;BME280;11831;55.918;37.746;2022-07-31T08:17:51;99597.87;;;26.36;0.00
23318;BME280;11831;55.918;37.746;2022-07-31T08:20:17;99592.81;;;26.00;0.00
23318;BME280;11831;55.918;37.746;2022-07-31T08:22:43;99599.63;;;26.32;0.00
23318;BME280;11831;55.918;37.746;2022-07-31T08:25:09;99599.13;;;27.06;0.00
23318;BME280;11831;55.918;37.746;2022-07-31T08:27:37;99596.59;;;26.72;0.00
23318;BME280;11831;55.918;37.746;2022-07-31T08:30:03;99598.50;;;26.42;0.00
23318;BME280;11831;55.918;37.746;2022-07-31T08:32:31;99589.63;;;26.74;0.00
23318;BME280;11831;55.918;37.746;2022-07-31T08:34:59;99589.72;;;26.57;0.00
23318;BME280;11831;55.918;37.746;2022-07-31T08:37:25;99592.50;;;26.48;0.00
23318;BME280;11831;55.918;37.746;2022-07-31T08:39:51;99603.03;;;26.38;0.00
23318;BME280;11831;55.918;37.746;2022-07-31T08:42:17;99598.44;;;26.12;0.00
23318;BME280;11831;55.918;37.746;2022-07-31T08:44:44;99593.12;;;25.98;0.00
23318;BME280;11831;55.918;37.746;2022-07-31T08:47:11;99593.12;;;26.07;0.00
23318;BME280;11831;55.918;37.746;2022-07-31T08:49:40;99599.59;;;26.03;0.00
23318;BME280;11831;55.918;37.746;2022-07-31T08:52:08;99597.31;;;25.96;0.00
23318;BME280;11831;55.918;37.746;2022-07-31T08:54:35;99600.59;;;25.55;0.00
23318;BME280;11831;55.918;37.746;2022-07-31T08:57:01;99604.78;;;25.44;0.00
23318;BME280;11831;55.918;37.746;2022-07-31T08:59:27;99600.09;;;25.70;0.00
23318;BME280;11831;55.918;37.746;2022-07-31T09:01:54;99599.03;;;26.35;0.00
23318;BME280;11831;55.918;37.746;2022-07-31T09:04:22;99604.97;;;26.28;0.00
23318;BME280;11831;55.918;37.746;2022-07-31T09:06:48;99595.50;;;26.64;0.00
23318;BME280;11831;55.918;37.746;2022-07-31T09:09:15;99592.91;;;26.68;0.00
23318;BME280;11831;55.918;37.746;2022-07-31T09:11:48;99594.19;;;26.61;0.00
23318;BME280;11831;55.918;37.746;2022-07-31T09:14:29;99596.53;;;26.51;0.00
23318;BME280;11831;55.918;37.746;2022-07-31T09:16:57;99590.91;;;26.47;0.00
23318;BME280;11831;55.918;37.746;2022-07-31T09:19:23;99588.41;;;26.34;0.00
23318;BME280;11831;55.918;37.746;2022-07-31T09:21:50;99586.28;;;26.69;0.00
23318;BME280;11831;55.918;37.746;2022-07-31T09:24:27;99589.44;;;27.09;0.00
23318;BME280;11831;55.918;37.746;2022-07-31T09:27:07;99583.00;;;27.05;0.00
23318;BME280;11831;55.918;37.746;2022-07-31T09:29:36;99581.00;;;27.14;0.00
23318;BME280;11831;55.918;37.746;2022-07-31T09:32:10;99587.22;;;27.02;0.00
23318;BME280;11831;55.918;37.746;2022-07-31T09:34:37;99584.53;;;26.64;0.00
23318;BME280;11831;55.918;37.746;2022-07-31T09:37:11;99573.09;;;27.12;0.00
23318;BME280;11831;55.918;37.746;2022-07-31T09:39:37;99579.53;;;27.37;0.00
23318;BME280;11831;55.918;37.746;2022-07-31T09:42:04;99586.41;;;27.43;0.00
23318;BME280;11831;55.918;37.746;2022-07-31T09:44:41;99589.97;;;27.65;0.00
23318;BME280;11831;55.918;37.746;2022-07-31T09:47:20;99580.22;;;28.00;0.00
23318;BME280;11831;55.918;37.746;2022-07-31T09:49:54;99580.16;;;28.21;0.00
23318;BME280;11831;55.918;37.746;2022-07-31T09:52:21;99575.72;;;27.83;0.00
23318;BME280;11831;55.918;37.746;2022-07-31T09:54:47;99574.50;;;28.05;0.00
23318;BME280;11831;55.918;37.746;2022-07-31T09:57:15;99586.88;;;28.11;0.00
23318;BME280;11831;55.918;37.746;2022-07-31T09:59:41;99580.84;;;27.85;0.00
23318;BME280;11831;55.918;37.746;2022-07-31T10:02:08;99578.38;;;26.97;0.00
23318;BME280;11831;55.918;37.746;2022-07-31T10:04:38;99583.13;;;27.50;0.00
23318;BME280;11831;55.918;37.746;2022-07-31T10:07:05;99589.84;;;28.06;0.00
23318;BME280;11831;55.918;37.746;2022-07-31T10:09:31;99587.28;;;28.34;0.00
23318;BME280;11831;55.918;37.746;2022-07-31T10:11:59;99591.00;;;28.05;0.00
23318;BME280;11831;55.918;37.746;2022-07-31T10:14:27;99590.53;;;28.03;0.00
23318;BME280;11831;55.918;37.746;2022-07-31T10:16:53;99574.78;;;27.26;0.00
23318;BME280;11831;55.918;37.746;2022-07-31T10:19:21;99576.81;;;27.70;0.00
23318;BME280;11831;55.918;37.746;2022-07-31T10:21:50;99573.06;;;26.91;0.00
23318;BME280;11831;55.918;37.746;2022-07-31T10:24:20;99581.97;;;26.59;0.00
23318;BME280;11831;55.918;37.746;2022-07-31T10:26:48;99580.94;;;26.72;0.00
23318;BME280;11831;55.918;37.746;2022-07-31T10:29:15;99583.06;;;26.67;0.00
23318;BME280;11831;55.918;37.746;2022-07-31T10:31:42;99571.91;;;27.01;0.00
23318;BME280;11831;55.918;37.746;2022-07-31T10:34:11;99570.47;;;26.95;0.00
23318;BME280;11831;55.918;37.746;2022-07-31T10:36:38;99572.91;;;26.88;0.00
23318;BME280;11831;55.918;37.746;2022-07-31T10:41:36;99577.50;;;27.46;0.00
23318;BME280;11831;55.918;37.746;2022-07-31T10:46:39;99572.84;;;27.80;0.00
23318;BME280;11831;55.918;37.746;2022-07-31T10:49:05;99581.00;;;27.56;0.00
23318;BME280;11831;55.918;37.746;2022-07-31T10:51:31;99569.38;;;27.71;0.00
23318;BME280;11831;55.918;37.746;2022-07-31T10:54:02;99569.81;;;27.94;0.00
23318;BME280;11831;55.918;37.746;2022-07-31T10:56:41;99568.44;;;28.00;0.00
23318;BME280;11831;55.918;37.746;2022-07-31T10:59:09;99575.19;;;27.90;0.00
23318;BME280;11831;55.918;37.746;2022-07-31T11:01:46;99565.81;;;28.03;0.00
23318;BME280;11831;55.918;37.746;2022-07-31T11:04:23;99568.97;;;28.26;0.00
23318;BME280;11831;55.918;37.746;2022-07-31T11:06:51;99555.31;;;28.18;0.00
23318;BME280;11831;55.918;37.746;2022-07-31T11:09:24;99561.84;;;28.25;0.00
23318;BME280;11831;55.918;37.746;2022-07-31T11:11:51;99550.63;;;28.30;0.00
23318;BME280;11831;55.918;37.746;2022-07-31T11:14:32;99551.53;;;28.34;0.00
23318;BME280;11831;55.918;37.746;2022-07-31T11:16:58;99555.78;;;28.44;0.00
23318;BME280;11831;55.918;37.746;2022-07-31T11:19:35;99554.06;;;28.88;0.00
23318;BME280;11831;55.918;37.746;2022-07-31T11:22:07;99557.56;;;29.13;0.00
23318;BME280;11831;55.918;37.746;2022-07-31T11:24:33;99559.53;;;29.41;0.00
23318;BME280;11831;55.918;37.746;2022-07-31T11:26:59;99554.19;;;30.04;0.00
23318;BME280;11831;55.918;37.746;2022-07-31T11:29:29;99550.72;;;30.22;0.00
23318;BME280;11831;55.918;37.746;2022-07-31T11:32:15;99554.19;;;30.19;0.00
23318;BME280;11831;55.918;37.746;2022-07-31T11:34:48;99546.84;;;29.95;0.00
23318;BME280;11831;55.918;37.746;2022-07-31T11:37:15;99544.63;;;29.01;0.00
23318;BME280;11831;55.918;37.746;2022-07-31T11:39:42;99547.59;;;29.36;0.00
23318;BME280;11831;55.918;37.746;2022-07-31T11:42:08;99542.22;;;29.99;0.00
23318;BME280;11831;55.918;37.746;2022-07-31T11:44:34;99545.19;;;30.22;0.00
23318;BME280;11831;55.918;37.746;2022-07-31T11:47:00;99540.16;;;30.09;0.00
23318;BME280;11831;55.918;37.746;2022-07-31T11:49:26;99549.59;;;29.95;0.00
23318;BME280;11831;55.918;37.746;2022-07-31T11:52:00;99548.94;;;30.62;0.00
23318;BME280;11831;55.918;37.746;2022-07-31T11:54:26;99537.91;;;32.20;0.00
23318;BME280;11831;55.918;37.746;2022-07-31T11:56:53;99540.19;;;33.53;0.00
23318;BME280;11831;55.918;37.746;2022-07-31T11:59:33;99544.56;;;34.91;0.00
23318;BME280;11831;55.918;37.746;2022-07-31T12:04:29;99541.31;;;35.75;0.00
23318;BME280;11831;55.918;37.746;2022-07-31T12:06:55;99539.03;;;34.36;0.00
23318;BME280;11831;55.918;37.746;2022-07-31T12:09:21;99537.56;;;32.74;0.00
23318;BME280;11831;55.918;37.746;2022-07-31T12:11:47;99539.84;;;32.42;0.00
23318;BME280;11831;55.918;37.746;2022-07-31T12:14:14;99541.84;;;31.96;0.00
23318;BME280;11831;55.918;37.746;2022-07-31T12:16:40;99548.09;;;31.93;0.00
23318;BME280;11831;55.918;37.746;2022-07-31T12:19:06;99534.97;;;32.32;0.00
23318;BME280;11831;55.918;37.746;2022-07-31T12:21:33;99535.69;;;33.08;0.00
23318;BME280;11831;55.918;37.746;2022-07-31T12:23:59;99529.50;;;33.52;0.00
23318;BME280;11831;55.918;37.746;2022-07-31T12:26:29;99528.50;;;33.71;0.00
23318;BME280;11831;55.918;37.746;2022-07-31T12:28:56;99529.59;;;33.29;0.00
23318;BME280;11831;55.918;37.746;2022-07-31T12:31:22;99524.38;;;32.64;0.00
23318;BME280;11831;55.918;37.746;2022-07-31T12:33:49;99520.09;;;32.96;0.00
23318;BME280;11831;55.918;37.746;2022-07-31T12:36:15;99533.84;;;32.36;0.00
23318;BME280;11831;55.918;37.746;2022-07-31T12:38:42;99534.16;;;32.08;0.00
23318;BME280;11831;55.918;37.746;2022-07-31T12:41:08;99527.53;;;32.89;0.00
23318;BME280;11831;55.918;37.746;2022-07-31T12:43:35;99541.34;;;33.86;0.00
23318;BME280;11831;55.918;37.746;2022-07-31T12:46:01;99529.78;;;35.63;41.15
23318;BME280;11831;55.918;37.746;2022-07-31T12:48:31;99532.28;;;33.89;41.63
23318;BME280;11831;55.918;37.746;2022-07-31T12:50:58;99525.84;;;33.11;0.00
23318;BME280;11831;55.918;37.746;2022-07-31T12:53:25;99531.72;;;34.17;41.15
23318;BME280;11831;55.918;37.746;2022-07-31T12:55:51;99528.22;;;34.82;40.62
23318;BME280;11831;55.918;37.746;2022-07-31T12:58:17;99523.75;;;35.36;41.35
23318;BME280;11831;55.918;37.746;2022-07-31T13:00:44;99516.47;;;35.10;0.00
23318;BME280;11831;55.918;37.746;2022-07-31T13:03:10;99522.19;;;34.14;0.00
23318;BME280;11831;55.918;37.746;2022-07-31T13:05:36;99520.28;;;32.28;0.00
23318;BME280;11831;55.918;37.746;2022-07-31T13:08:03;99517.06;;;31.80;0.00
23318;BME280;11831;55.918;37.746;2022-07-31T13:10:29;99517.19;;;31.45;0.00
23318;BME280;11831;55.918;37.746;2022-07-31T13:12:55;99514.84;;;31.66;0.00
23318;BME280;11831;55.918;37.746;2022-07-31T13:15:21;99511.66;;;32.10;0.00